Royal Melbourne — WDC2865 — position and weather

sailwx.info

Track history (hours):
 
Tides and Currents Weather Stations Pressure Air Temp Water Temp Dewpoint Dewpoint Depression Visibility Wind Speed Wind Dir Waves Ship Positions

Royal Melbourne

More information available from US FCC via Universal Licensing System and Coast Guard Vessel Documentation Center.

Last reported at 2014-Sep-18 05:21 UTC. Time now 2014-Sep-18 09:43 UTC.
Position N 38°04' W 122°14'.

Length 30 m; draft 2 m.

Type: Tug. MMSI: 366998830.

Date/timePositionNaut miles runAvg speedWind from/ knotsBaromVisibWave heightAir tempDewpointWater temp
2014-Sep-18 05:21N 38°04' W 122°14'1 0.1
2014-Sep-17 18:16N 38°03' W 122°12'8 8.6
2014-Sep-17 17:20N 38°02' W 122°22'6 8.0
2014-Sep-17 16:33N 37°56' W 122°26'8 8.2
2014-Sep-17 15:34N 37°49' W 122°21'3 3.4
2014-Sep-17 14:33N 37°48' W 122°17'0 0.0
2014-Sep-17 13:33N 37°48' W 122°17'0 0.0
2014-Sep-17 12:33N 37°48' W 122°17'0 0.0
2014-Sep-17 11:33N 37°48' W 122°17'0 0.0
2014-Sep-17 10:33N 37°48' W 122°17'0 0.0
2014-Sep-17 09:33N 37°48' W 122°17'0 0.0
2014-Sep-17 08:33N 37°48' W 122°17'0 0.0
2014-Sep-17 07:33N 37°48' W 122°17'0 0.0
2014-Sep-17 06:33N 37°48' W 122°17'0 0.0
2014-Sep-17 05:33N 37°48' W 122°17'3 3.0
2014-Sep-17 04:33N 37°48' W 122°21'1 1.2
2014-Sep-17 03:33N 37°46' W 122°21'0 0.2
2014-Sep-17 02:33N 37°46' W 122°21'0 0.1
2014-Sep-17 01:33N 37°46' W 122°21'0 0.0
2014-Sep-17 00:33N 37°46' W 122°21'1 1.1
2014-Sep-16 23:33N 37°45' W 122°20'1 0.9
2014-Sep-16 22:33N 37°44' W 122°20'0 0.0
2014-Sep-16 21:33N 37°44' W 122°20'5 5.5
2014-Sep-16 20:33N 37°49' W 122°24'0 0.2
2014-Sep-16 19:31N 37°49' W 122°24'0 0.0
2014-Sep-16 18:31N 37°49' W 122°24'0 0.0
2014-Sep-16 17:25N 37°49' W 122°24'0 0.1
2014-Sep-16 16:31N 37°49' W 122°24'0 0.0
2014-Sep-16 15:31N 37°49' W 122°24'0 0.3
2014-Sep-16 14:34N 37°49' W 122°24'4 4.4
2014-Sep-16 13:34N 37°48' W 122°19'1 1.2
2014-Sep-16 12:33N 37°48' W 122°17'0 0.0
2014-Sep-16 11:33N 37°48' W 122°17'0 0.0
2014-Sep-16 10:33N 37°48' W 122°17'0 0.0
2014-Sep-16 09:33N 37°48' W 122°17'0 0.0
2014-Sep-16 08:33N 37°48' W 122°17'0 0.0
2014-Sep-16 07:33N 37°48' W 122°17'0 0.0
2014-Sep-16 06:33N 37°48' W 122°17'0 0.0
2014-Sep-16 05:32N 37°48' W 122°17'0 0.0
2014-Sep-16 04:33N 37°48' W 122°17'5 4.6
2014-Sep-16 03:33N 37°50' W 122°22'4 4.2
2014-Sep-16 02:33N 37°54' W 122°22'1 0.8
2014-Sep-16 01:33N 37°55' W 122°22'0 0.0
2014-Sep-16 00:33N 37°55' W 122°22'0 0.0
2014-Sep-15 23:33N 37°55' W 122°22'0 0.0
2014-Sep-15 22:33N 37°55' W 122°22'0 0.0
2014-Sep-15 21:33N 37°55' W 122°22'0 0.0
2014-Sep-15 20:33N 37°55' W 122°22'0 0.0
2014-Sep-15 19:33N 37°55' W 122°22'3 3.0
2014-Sep-15 18:33N 37°56' W 122°25'9 8.5
2014-Sep-15 17:33N 38°03' W 122°19'3 2.6
2014-Sep-15 16:26N 38°03' W 122°16'0 0.0
2014-Sep-15 15:26N 38°03' W 122°16'0 0.0
2014-Sep-15 14:32N 38°03' W 122°16'0 0.0
2014-Sep-15 12:26N 38°03' W 122°16'0 0.0
2014-Sep-15 11:32N 38°03' W 122°16'0 0.0
2014-Sep-15 10:32N 38°03' W 122°16'0 0.0
2014-Sep-15 09:32N 38°03' W 122°16'0 0.0
2014-Sep-15 08:32N 38°03' W 122°16'0 0.0
2014-Sep-15 07:32N 38°03' W 122°16'0 0.0
2014-Sep-15 06:32N 38°03' W 122°16'0 0.0
2014-Sep-15 05:32N 38°03' W 122°16'0 0.0
2014-Sep-15 04:32N 38°03' W 122°16'0 0.0
2014-Sep-15 03:32N 38°03' W 122°16'0 0.0
2014-Sep-15 02:32N 38°03' W 122°16'0 0.0
2014-Sep-15 01:32N 38°03' W 122°16'0 0.0
2014-Sep-15 00:32N 38°03' W 122°16'0 0.0
2014-Sep-14 23:32N 38°03' W 122°16'0 0.0
2014-Sep-14 22:26N 38°03' W 122°16'0 0.0
2014-Sep-14 21:26N 38°03' W 122°16'0 0.0
2014-Sep-14 20:26N 38°03' W 122°16'0 0.0
2014-Sep-14 19:14N 38°03' W 122°16'0 0.0
2014-Sep-14 17:20N 38°03' W 122°16'0 0.0
2014-Sep-14 16:25N 38°03' W 122°16'0 0.0
2014-Sep-14 15:31N 38°03' W 122°16'0 0.0
2014-Sep-14 14:07N 38°03' W 122°16'0 0.0
2014-Sep-14 13:25N 38°03' W 122°16'0 0.0
2014-Sep-14 12:25N 38°03' W 122°16'0 0.0
2014-Sep-14 11:31N 38°03' W 122°16'0 0.0
2014-Sep-14 10:13N 38°03' W 122°16'0 0.0
2014-Sep-14 09:19N 38°03' W 122°16'0 0.0
2014-Sep-14 08:25N 38°03' W 122°16'0 0.0
2014-Sep-14 06:31N 38°03' W 122°16'0 0.0
2014-Sep-14 05:31N 38°03' W 122°16'0 0.0
2014-Sep-14 04:31N 38°03' W 122°16'0 0.0
2014-Sep-14 03:31N 38°03' W 122°16'0 0.0
2014-Sep-14 02:33N 38°03' W 122°16'6 5.9
2014-Sep-14 01:31N 38°02' W 122°08'0 0.1
2014-Sep-13 21:33N 38°02' W 122°08'0 0.0
2014-Sep-13 20:33N 38°02' W 122°08'0 0.0
2014-Sep-13 16:33N 38°02' W 122°08'0 0.0
2014-Sep-13 15:33N 38°02' W 122°08'1 0.3
2014-Sep-13 13:32N 38°02' W 122°08'0 0.0
2014-Sep-13 12:33N 38°02' W 122°08'0 0.0
2014-Sep-13 10:21N 38°02' W 122°08'0 0.0
2014-Sep-13 09:33N 38°02' W 122°08'0 0.0
2014-Sep-13 08:27N 38°02' W 122°08'0 0.0
2014-Sep-13 07:33N 38°02' W 122°08'0 0.0
2014-Sep-13 06:27N 38°02' W 122°08'0 0.0
2014-Sep-13 01:10N 38°02' W 122°08'0 0.3
2014-Sep-13 00:15N 38°02' W 122°08'2 2.7
2014-Sep-12 23:31N 38°03' W 122°11'4 3.8
2014-Sep-12 22:29N 38°03' W 122°16'0 0.0
2014-Sep-12 21:27N 38°03' W 122°16'0 0.0
2014-Sep-12 16:16N 38°03' W 122°16'0 0.0
2014-Sep-12 15:33N 38°03' W 122°16'0 0.0
2014-Sep-12 14:33N 38°03' W 122°16'0 0.0
2014-Sep-12 13:33N 38°03' W 122°16'0 0.0
2014-Sep-12 12:33N 38°03' W 122°16'0 0.0
2014-Sep-12 11:33N 38°03' W 122°16'0 0.0
2014-Sep-12 10:33N 38°03' W 122°16'0 0.0
2014-Sep-12 09:33N 38°03' W 122°16'0 0.0
2014-Sep-12 08:33N 38°03' W 122°16'0 0.0
2014-Sep-12 07:33N 38°03' W 122°16'0 0.0
2014-Sep-12 06:33N 38°03' W 122°16'0 0.0
2014-Sep-12 05:33N 38°03' W 122°16'0 0.0
2014-Sep-12 04:33N 38°03' W 122°16'0 0.0
2014-Sep-12 03:32N 38°03' W 122°16'0 0.0
2014-Sep-12 02:33N 38°03' W 122°16'0 0.0
2014-Sep-12 01:33N 38°03' W 122°16'0 0.0
2014-Sep-12 00:33N 38°03' W 122°16'3 3.0
2014-Sep-11 23:33N 38°03' W 122°19'8 8.3
2014-Sep-11 22:33N 37°56' W 122°26'3 3.2
2014-Sep-11 21:33N 37°55' W 122°22'0 0.0
2014-Sep-11 20:33N 37°55' W 122°22'0 0.0
2014-Sep-11 19:33N 37°55' W 122°22'0 0.4
2014-Sep-11 18:33N 37°55' W 122°22'5 4.5
2014-Sep-11 17:33N 37°50' W 122°22'5 4.5
2014-Sep-11 16:32N 37°48' W 122°17'0 0.0
2014-Sep-11 15:32N 37°48' W 122°17'0 0.0
2014-Sep-11 14:32N 37°48' W 122°17'0 0.0
2014-Sep-11 13:32N 37°48' W 122°17'0 0.0
2014-Sep-11 12:32N 37°48' W 122°17'0 0.0
2014-Sep-11 11:32N 37°48' W 122°17'0 0.0
2014-Sep-11 10:32N 37°48' W 122°17'0 0.0
2014-Sep-11 09:32N 37°48' W 122°17'0 0.0
2014-Sep-11 08:32N 37°48' W 122°17'0 0.0
2014-Sep-11 07:32N 37°48' W 122°17'0 0.0
2014-Sep-11 06:32N 37°48' W 122°17'0 0.0
2014-Sep-11 05:32N 37°48' W 122°17'0 0.0
2014-Sep-11 04:32N 37°48' W 122°17'0 0.0
2014-Sep-11 03:32N 37°48' W 122°17'0 0.0
2014-Sep-11 02:32N 37°48' W 122°17'0 0.0
2014-Sep-11 01:29N 37°48' W 122°17'0 0.0
2014-Sep-11 00:31N 37°48' W 122°17'0 0.0
2014-Sep-10 23:34N 37°48' W 122°17'6 5.7
2014-Sep-10 22:34N 37°49' W 122°24'0 0.3
2014-Sep-10 21:32N 37°49' W 122°24'0 0.0
2014-Sep-10 20:32N 37°49' W 122°24'0 0.0
2014-Sep-10 19:32N 37°49' W 122°24'0 0.0
2014-Sep-10 18:32N 37°49' W 122°24'0 0.0
2014-Sep-10 17:32N 37°49' W 122°24'0 0.0
2014-Sep-10 16:32N 37°49' W 122°24'0 0.0
2014-Sep-10 15:33N 37°49' W 122°24'5 4.8
2014-Sep-10 14:33N 37°48' W 122°18'1 1.1
2014-Sep-10 13:33N 37°48' W 122°17'0 0.0
2014-Sep-10 12:33N 37°48' W 122°17'0 0.0
2014-Sep-10 11:33N 37°48' W 122°17'0 0.0
2014-Sep-10 10:33N 37°48' W 122°17'0 0.0
2014-Sep-10 09:33N 37°48' W 122°17'0 0.0
2014-Sep-10 08:33N 37°48' W 122°17'0 0.0
2014-Sep-10 07:33N 37°48' W 122°17'0 0.0
2014-Sep-10 06:33N 37°48' W 122°17'0 0.4
2014-Sep-10 05:33N 37°48' W 122°18'1 1.3
2014-Sep-10 04:32N 37°48' W 122°19'0 0.0
2014-Sep-10 03:31N 37°48' W 122°19'0 0.0
2014-Sep-10 02:33N 37°48' W 122°19'0 0.3
2014-Sep-10 01:33N 37°48' W 122°19'1 1.4
2014-Sep-10 00:30N 37°48' W 122°17'0 0.0
2014-Sep-09 23:33N 37°48' W 122°17'0 0.0
2014-Sep-09 22:33N 37°48' W 122°17'0 0.0
2014-Sep-09 21:33N 37°48' W 122°17'0 0.0
2014-Sep-09 20:33N 37°48' W 122°17'0 0.0
2014-Sep-09 19:33N 37°48' W 122°17'0 0.0
2014-Sep-09 18:33N 37°48' W 122°17'0 0.0
2014-Sep-09 17:33N 37°48' W 122°17'0 0.0
2014-Sep-09 16:33N 37°48' W 122°17'0 0.0
2014-Sep-09 15:33N 37°48' W 122°17'0 0.0
2014-Sep-09 14:33N 37°48' W 122°17'0 0.0
2014-Sep-09 13:33N 37°48' W 122°17'0 0.0
2014-Sep-09 12:32N 37°48' W 122°17'0 0.0
2014-Sep-09 11:32N 37°48' W 122°17'0 0.0
2014-Sep-09 10:32N 37°48' W 122°17'0 0.0
2014-Sep-09 09:32N 37°48' W 122°17'0 0.0
2014-Sep-09 08:32N 37°48' W 122°17'0 0.0
2014-Sep-09 07:32N 37°48' W 122°17'0 0.0
2014-Sep-09 06:34N 37°48' W 122°17'4 4.2
2014-Sep-09 05:33N 37°50' W 122°22'5 4.8
2014-Sep-09 04:33N 37°54' W 122°23'1 1.3
2014-Sep-09 03:33N 37°55' W 122°22'0 0.0
2014-Sep-09 02:33N 37°55' W 122°22'0 0.0
2014-Sep-09 01:33N 37°55' W 122°22'3 2.5
2014-Sep-09 00:33N 37°54' W 122°25'7 6.7
2014-Sep-08 23:34N 37°48' W 122°21'3 2.8
2014-Sep-08 22:32N 37°48' W 122°17'0 0.0
2014-Sep-08 21:32N 37°48' W 122°17'0 0.0
2014-Sep-08 20:32N 37°48' W 122°17'0 0.0
2014-Sep-08 19:32N 37°48' W 122°17'0 0.0
2014-Sep-08 18:32N 37°48' W 122°17'0 0.0
2014-Sep-08 17:32N 37°48' W 122°17'0 0.0
2014-Sep-08 16:32N 37°48' W 122°17'0 0.0
2014-Sep-08 15:29N 37°48' W 122°17'0 0.0
2014-Sep-08 14:32N 37°48' W 122°17'0 0.0
2014-Sep-08 13:32N 37°48' W 122°17'0 0.0
2014-Sep-08 12:32N 37°48' W 122°17'0 0.0
2014-Sep-08 11:32N 37°48' W 122°17'1 0.5
2014-Sep-08 10:33N 37°48' W 122°18'3 3.4
2014-Sep-08 09:34N 37°45' W 122°21'0 0.0
2014-Sep-08 08:33N 37°45' W 122°21'1 1.1
2014-Sep-08 07:33N 37°46' W 122°20'0 0.2
2014-Sep-08 06:33N 37°46' W 122°20'0 0.1
2014-Sep-08 05:33N 37°46' W 122°20'  
Track history (hours):
 
Tides and Currents Weather Stations Pressure Air Temp Water Temp Dewpoint Dewpoint Depression Visibility Wind Speed Wind Dir Waves Ship Positions

Royal Melbourne

More information available from US FCC via Universal Licensing System and Coast Guard Vessel Documentation Center.

Last reported at 2014-Sep-18 05:21 UTC. Time now 2014-Sep-18 09:43 UTC.
Position N 38°04' W 122°14'.

Length 30 m; draft 2 m.

Type: Tug. MMSI: 366998830.

Date/timePositionNaut miles runAvg speedWind from/ knotsBaromVisibWave heightAir tempDewpointWater temp
2014-Sep-18 05:21N 38°04' W 122°14'1 0.1
2014-Sep-17 18:16N 38°03' W 122°12'8 8.6
2014-Sep-17 17:20N 38°02' W 122°22'6 8.0
2014-Sep-17 16:33N 37°56' W 122°26'8 8.2
2014-Sep-17 15:34N 37°49' W 122°21'3 3.4
2014-Sep-17 14:33N 37°48' W 122°17'0 0.0
2014-Sep-17 13:33N 37°48' W 122°17'0 0.0
2014-Sep-17 12:33N 37°48' W 122°17'0 0.0
2014-Sep-17 11:33N 37°48' W 122°17'0 0.0
2014-Sep-17 10:33N 37°48' W 122°17'0 0.0
2014-Sep-17 09:33N 37°48' W 122°17'0 0.0
2014-Sep-17 08:33N 37°48' W 122°17'0 0.0
2014-Sep-17 07:33N 37°48' W 122°17'0 0.0
2014-Sep-17 06:33N 37°48' W 122°17'0 0.0
2014-Sep-17 05:33N 37°48' W 122°17'3 3.0
2014-Sep-17 04:33N 37°48' W 122°21'1 1.2
2014-Sep-17 03:33N 37°46' W 122°21'0 0.2
2014-Sep-17 02:33N 37°46' W 122°21'0 0.1
2014-Sep-17 01:33N 37°46' W 122°21'0 0.0
2014-Sep-17 00:33N 37°46' W 122°21'1 1.1
2014-Sep-16 23:33N 37°45' W 122°20'1 0.9
2014-Sep-16 22:33N 37°44' W 122°20'0 0.0
2014-Sep-16 21:33N 37°44' W 122°20'5 5.5
2014-Sep-16 20:33N 37°49' W 122°24'0 0.2
2014-Sep-16 19:31N 37°49' W 122°24'0 0.0
2014-Sep-16 18:31N 37°49' W 122°24'0 0.0
2014-Sep-16 17:25N 37°49' W 122°24'0 0.1
2014-Sep-16 16:31N 37°49' W 122°24'0 0.0
2014-Sep-16 15:31N 37°49' W 122°24'0 0.3
2014-Sep-16 14:34N 37°49' W 122°24'4 4.4
2014-Sep-16 13:34N 37°48' W 122°19'1 1.2
2014-Sep-16 12:33N 37°48' W 122°17'0 0.0
2014-Sep-16 11:33N 37°48' W 122°17'0 0.0
2014-Sep-16 10:33N 37°48' W 122°17'0 0.0
2014-Sep-16 09:33N 37°48' W 122°17'0 0.0
2014-Sep-16 08:33N 37°48' W 122°17'0 0.0
2014-Sep-16 07:33N 37°48' W 122°17'0 0.0
2014-Sep-16 06:33N 37°48' W 122°17'0 0.0
2014-Sep-16 05:32N 37°48' W 122°17'0 0.0
2014-Sep-16 04:33N 37°48' W 122°17'5 4.6
2014-Sep-16 03:33N 37°50' W 122°22'4 4.2
2014-Sep-16 02:33N 37°54' W 122°22'1 0.8
2014-Sep-16 01:33N 37°55' W 122°22'0 0.0
2014-Sep-16 00:33N 37°55' W 122°22'0 0.0
2014-Sep-15 23:33N 37°55' W 122°22'0 0.0
2014-Sep-15 22:33N 37°55' W 122°22'0 0.0
2014-Sep-15 21:33N 37°55' W 122°22'0 0.0
2014-Sep-15 20:33N 37°55' W 122°22'0 0.0
2014-Sep-15 19:33N 37°55' W 122°22'3 3.0
2014-Sep-15 18:33N 37°56' W 122°25'9 8.5
2014-Sep-15 17:33N 38°03' W 122°19'3 2.6
2014-Sep-15 16:26N 38°03' W 122°16'0 0.0
2014-Sep-15 15:26N 38°03' W 122°16'0 0.0
2014-Sep-15 14:32N 38°03' W 122°16'0 0.0
2014-Sep-15 12:26N 38°03' W 122°16'0 0.0
2014-Sep-15 11:32N 38°03' W 122°16'0 0.0
2014-Sep-15 10:32N 38°03' W 122°16'0 0.0
2014-Sep-15 09:32N 38°03' W 122°16'0 0.0
2014-Sep-15 08:32N 38°03' W 122°16'0 0.0
2014-Sep-15 07:32N 38°03' W 122°16'0 0.0
2014-Sep-15 06:32N 38°03' W 122°16'0 0.0
2014-Sep-15 05:32N 38°03' W 122°16'0 0.0
2014-Sep-15 04:32N 38°03' W 122°16'0 0.0
2014-Sep-15 03:32N 38°03' W 122°16'0 0.0
2014-Sep-15 02:32N 38°03' W 122°16'0 0.0
2014-Sep-15 01:32N 38°03' W 122°16'0 0.0
2014-Sep-15 00:32N 38°03' W 122°16'0 0.0
2014-Sep-14 23:32N 38°03' W 122°16'0 0.0
2014-Sep-14 22:26N 38°03' W 122°16'0 0.0
2014-Sep-14 21:26N 38°03' W 122°16'0 0.0
2014-Sep-14 20:26N 38°03' W 122°16'0 0.0
2014-Sep-14 19:14N 38°03' W 122°16'0 0.0
2014-Sep-14 17:20N 38°03' W 122°16'0 0.0
2014-Sep-14 16:25N 38°03' W 122°16'0 0.0
2014-Sep-14 15:31N 38°03' W 122°16'0 0.0
2014-Sep-14 14:07N 38°03' W 122°16'0 0.0
2014-Sep-14 13:25N 38°03' W 122°16'0 0.0
2014-Sep-14 12:25N 38°03' W 122°16'0 0.0
2014-Sep-14 11:31N 38°03' W 122°16'0 0.0
2014-Sep-14 10:13N 38°03' W 122°16'0 0.0
2014-Sep-14 09:19N 38°03' W 122°16'0 0.0
2014-Sep-14 08:25N 38°03' W 122°16'0 0.0
2014-Sep-14 06:31N 38°03' W 122°16'0 0.0
2014-Sep-14 05:31N 38°03' W 122°16'0 0.0
2014-Sep-14 04:31N 38°03' W 122°16'0 0.0
2014-Sep-14 03:31N 38°03' W 122°16'0 0.0
2014-Sep-14 02:33N 38°03' W 122°16'6 5.9
2014-Sep-14 01:31N 38°02' W 122°08'0 0.1
2014-Sep-13 21:33N 38°02' W 122°08'0 0.0
2014-Sep-13 20:33N 38°02' W 122°08'0 0.0
2014-Sep-13 16:33N 38°02' W 122°08'0 0.0
2014-Sep-13 15:33N 38°02' W 122°08'1 0.3
2014-Sep-13 13:32N 38°02' W 122°08'0 0.0
2014-Sep-13 12:33N 38°02' W 122°08'0 0.0
2014-Sep-13 10:21N 38°02' W 122°08'0 0.0
2014-Sep-13 09:33N 38°02' W 122°08'0 0.0
2014-Sep-13 08:27N 38°02' W 122°08'0 0.0
2014-Sep-13 07:33N 38°02' W 122°08'0 0.0
2014-Sep-13 06:27N 38°02' W 122°08'0 0.0
2014-Sep-13 01:10N 38°02' W 122°08'0 0.3
2014-Sep-13 00:15N 38°02' W 122°08'2 2.7
2014-Sep-12 23:31N 38°03' W 122°11'4 3.8
2014-Sep-12 22:29N 38°03' W 122°16'0 0.0
2014-Sep-12 21:27N 38°03' W 122°16'0 0.0
2014-Sep-12 16:16N 38°03' W 122°16'0 0.0
2014-Sep-12 15:33N 38°03' W 122°16'0 0.0
2014-Sep-12 14:33N 38°03' W 122°16'0 0.0
2014-Sep-12 13:33N 38°03' W 122°16'0 0.0
2014-Sep-12 12:33N 38°03' W 122°16'0 0.0
2014-Sep-12 11:33N 38°03' W 122°16'0 0.0
2014-Sep-12 10:33N 38°03' W 122°16'0 0.0
2014-Sep-12 09:33N 38°03' W 122°16'0 0.0
2014-Sep-12 08:33N 38°03' W 122°16'0 0.0
2014-Sep-12 07:33N 38°03' W 122°16'0 0.0
2014-Sep-12 06:33N 38°03' W 122°16'0 0.0
2014-Sep-12 05:33N 38°03' W 122°16'0 0.0
2014-Sep-12 04:33N 38°03' W 122°16'0 0.0
2014-Sep-12 03:32N 38°03' W 122°16'0 0.0
2014-Sep-12 02:33N 38°03' W 122°16'0 0.0
2014-Sep-12 01:33N 38°03' W 122°16'0 0.0
2014-Sep-12 00:33N 38°03' W 122°16'3 3.0
2014-Sep-11 23:33N 38°03' W 122°19'8 8.3
2014-Sep-11 22:33N 37°56' W 122°26'3 3.2
2014-Sep-11 21:33N 37°55' W 122°22'0 0.0
2014-Sep-11 20:33N 37°55' W 122°22'0 0.0
2014-Sep-11 19:33N 37°55' W 122°22'0 0.4
2014-Sep-11 18:33N 37°55' W 122°22'5 4.5
2014-Sep-11 17:33N 37°50' W 122°22'5 4.5
2014-Sep-11 16:32N 37°48' W 122°17'0 0.0
2014-Sep-11 15:32N 37°48' W 122°17'0 0.0
2014-Sep-11 14:32N 37°48' W 122°17'0 0.0
2014-Sep-11 13:32N 37°48' W 122°17'0 0.0
2014-Sep-11 12:32N 37°48' W 122°17'0 0.0
2014-Sep-11 11:32N 37°48' W 122°17'0 0.0
2014-Sep-11 10:32N 37°48' W 122°17'0 0.0
2014-Sep-11 09:32N 37°48' W 122°17'0 0.0
2014-Sep-11 08:32N 37°48' W 122°17'0 0.0
2014-Sep-11 07:32N 37°48' W 122°17'0 0.0
2014-Sep-11 06:32N 37°48' W 122°17'0 0.0
2014-Sep-11 05:32N 37°48' W 122°17'0 0.0
2014-Sep-11 04:32N 37°48' W 122°17'0 0.0
2014-Sep-11 03:32N 37°48' W 122°17'0 0.0
2014-Sep-11 02:32N 37°48' W 122°17'0 0.0
2014-Sep-11 01:29N 37°48' W 122°17'0 0.0
2014-Sep-11 00:31N 37°48' W 122°17'0 0.0
2014-Sep-10 23:34N 37°48' W 122°17'6 5.7
2014-Sep-10 22:34N 37°49' W 122°24'0 0.3
2014-Sep-10 21:32N 37°49' W 122°24'0 0.0
2014-Sep-10 20:32N 37°49' W 122°24'0 0.0
2014-Sep-10 19:32N 37°49' W 122°24'0 0.0
2014-Sep-10 18:32N 37°49' W 122°24'0 0.0
2014-Sep-10 17:32N 37°49' W 122°24'0 0.0
2014-Sep-10 16:32N 37°49' W 122°24'0 0.0
2014-Sep-10 15:33N 37°49' W 122°24'5 4.8
2014-Sep-10 14:33N 37°48' W 122°18'1 1.1
2014-Sep-10 13:33N 37°48' W 122°17'0 0.0
2014-Sep-10 12:33N 37°48' W 122°17'0 0.0
2014-Sep-10 11:33N 37°48' W 122°17'0 0.0
2014-Sep-10 10:33N 37°48' W 122°17'0 0.0
2014-Sep-10 09:33N 37°48' W 122°17'0 0.0
2014-Sep-10 08:33N 37°48' W 122°17'0 0.0
2014-Sep-10 07:33N 37°48' W 122°17'0 0.0
2014-Sep-10 06:33N 37°48' W 122°17'0 0.4
2014-Sep-10 05:33N 37°48' W 122°18'1 1.3
2014-Sep-10 04:32N 37°48' W 122°19'0 0.0
2014-Sep-10 03:31N 37°48' W 122°19'0 0.0
2014-Sep-10 02:33N 37°48' W 122°19'0 0.3
2014-Sep-10 01:33N 37°48' W 122°19'1 1.4
2014-Sep-10 00:30N 37°48' W 122°17'0 0.0
2014-Sep-09 23:33N 37°48' W 122°17'0 0.0
2014-Sep-09 22:33N 37°48' W 122°17'0 0.0
2014-Sep-09 21:33N 37°48' W 122°17'0 0.0
2014-Sep-09 20:33N 37°48' W 122°17'0 0.0
2014-Sep-09 19:33N 37°48' W 122°17'0 0.0
2014-Sep-09 18:33N 37°48' W 122°17'0 0.0
2014-Sep-09 17:33N 37°48' W 122°17'0 0.0
2014-Sep-09 16:33N 37°48' W 122°17'0 0.0
2014-Sep-09 15:33N 37°48' W 122°17'0 0.0
2014-Sep-09 14:33N 37°48' W 122°17'0 0.0
2014-Sep-09 13:33N 37°48' W 122°17'0 0.0
2014-Sep-09 12:32N 37°48' W 122°17'0 0.0
2014-Sep-09 11:32N 37°48' W 122°17'0 0.0
2014-Sep-09 10:32N 37°48' W 122°17'0 0.0
2014-Sep-09 09:32N 37°48' W 122°17'0 0.0
2014-Sep-09 08:32N 37°48' W 122°17'0 0.0
2014-Sep-09 07:32N 37°48' W 122°17'0 0.0
2014-Sep-09 06:34N 37°48' W 122°17'4 4.2
2014-Sep-09 05:33N 37°50' W 122°22'5 4.8
2014-Sep-09 04:33N 37°54' W 122°23'1 1.3
2014-Sep-09 03:33N 37°55' W 122°22'0 0.0
2014-Sep-09 02:33N 37°55' W 122°22'0 0.0
2014-Sep-09 01:33N 37°55' W 122°22'3 2.5
2014-Sep-09 00:33N 37°54' W 122°25'7 6.7
2014-Sep-08 23:34N 37°48' W 122°21'3 2.8
2014-Sep-08 22:32N 37°48' W 122°17'0 0.0
2014-Sep-08 21:32N 37°48' W 122°17'0 0.0
2014-Sep-08 20:32N 37°48' W 122°17'0 0.0
2014-Sep-08 19:32N 37°48' W 122°17'0 0.0
2014-Sep-08 18:32N 37°48' W 122°17'0 0.0
2014-Sep-08 17:32N 37°48' W 122°17'0 0.0
2014-Sep-08 16:32N 37°48' W 122°17'0 0.0
2014-Sep-08 15:29N 37°48' W 122°17'0 0.0
2014-Sep-08 14:32N 37°48' W 122°17'0 0.0
2014-Sep-08 13:32N 37°48' W 122°17'0 0.0
2014-Sep-08 12:32N 37°48' W 122°17'0 0.0
2014-Sep-08 11:32N 37°48' W 122°17'1 0.5
2014-Sep-08 10:33N 37°48' W 122°18'3 3.4
2014-Sep-08 09:34N 37°45' W 122°21'0 0.0
2014-Sep-08 08:33N 37°45' W 122°21'1 1.1
2014-Sep-08 07:33N 37°46' W 122°20'0 0.2
2014-Sep-08 06:33N 37°46' W 122°20'0 0.1
2014-Sep-08 05:33N 37°46' W 122°20'  

Dump ship's entire track history